LFPO 231430Z 08007KT 040V100 CAVOK 16/03 Q1032 NOSIG

ElémentsDécodage
LFPO Station météo située sur l'aérodrome de PARIS Orly
231430Z émis le 23 du mois à 14h30 UTC
08007KT vent du 080°, 07 noeuds
040V100 vent de direction variable entre 040° et 100°
CAVOK Ceiling And Visibility OK
- Visibilité de 10 Km ou plus
- Pas de nuage au-dessous de 1500m ou au-dessous de l'altitude minimale du secteur la plus élevée (si>1500m) et absence de CB
- pas de temps présent significatif
16/03 température 16°C, point de rosée 03°C
 soit une humidité relative de 42%
Q1032 la pression au niveau de la mer (QNH) est de 1032 hPa
NOSIG Pas de changement significatif prévu au cours des deux heures suivant l'heure de l'observation